Sea Cypress — WDH3758 — position and weather

sailwx.info

Track history (hours):
 
Tides and Currents Weather Stations Pressure Air Temp Water Temp Dewpoint Dewpoint Depression Visibility Wind Speed Wind Dir Waves Ship Positions

Sea Cypress

Owner: Garber Brothers, Inc., Morgan City, LA. More information available from US FCC via Universal Licensing System and Coast Guard Vessel Documentation Center.

Last reported at 2018-May-19 13:08 UTC. Time now 2018-May-21 03:23 UTC.
Position N 29°34' W 090°32'.

Length 22 m; draft 3 m.

Type: Towing. MMSI: 367610590.

Date/timePositionNaut miles runAvg speedWind from/ knotsBaromVisibWave heightAir tempDewpointWater temp
2018-May-19 13:08N 29°34' W 090°32'1 6.0
2018-May-19 13:00N 29°34' W 090°32'3 6.4
2018-May-19 12:29N 29°35' W 090°36'3 5.3
2018-May-19 11:57N 29°36' W 090°39'1 1.5
2018-May-19 11:30N 29°36' W 090°40'0 0.0
2018-May-19 11:00N 29°36' W 090°40'0 0.0
2018-May-19 10:30N 29°36' W 090°40'0 0.0
2018-May-19 10:00N 29°36' W 090°40'0 0.0
2018-May-19 09:30N 29°36' W 090°40'0 0.0
2018-May-19 09:00N 29°36' W 090°40'0 0.0
2018-May-19 08:30N 29°36' W 090°40'0 0.0
2018-May-19 08:00N 29°36' W 090°40'0 0.0
2018-May-19 07:30N 29°36' W 090°40'0 0.0
2018-May-19 07:00N 29°36' W 090°40'0 0.0
2018-May-19 06:30N 29°36' W 090°40'0 0.0
2018-May-19 06:00N 29°36' W 090°40'0 0.0
2018-May-19 05:30N 29°36' W 090°40'0 0.0
2018-May-19 05:00N 29°36' W 090°40'0 0.0
2018-May-19 04:30N 29°36' W 090°40'0 0.0
2018-May-19 04:00N 29°36' W 090°40'0 0.0
2018-May-19 03:30N 29°36' W 090°40'0 0.0
2018-May-19 03:00N 29°36' W 090°40'0 0.0
2018-May-19 02:30N 29°36' W 090°40'0 0.0
2018-May-19 02:00N 29°36' W 090°40'1 2.5
2018-May-19 01:29N 29°35' W 090°38'3 6.6
2018-May-19 01:00N 29°34' W 090°35'24 3.1
2018-May-18 17:26N 29°43' W 090°10'23 4.6
2018-May-18 12:25N 29°34' W 090°34'2 5.4
2018-May-18 12:00N 29°35' W 090°36'3 5.7
2018-May-18 11:30N 29°36' W 090°39'2 4.9
2018-May-18 11:00N 29°37' W 090°42'2 4.5
2018-May-18 10:30N 29°35' W 090°43'1 2.3
2018-May-18 10:00N 29°34' W 090°43'2 3.7
2018-May-18 09:30N 29°32' W 090°42'3 5.1
2018-May-18 09:00N 29°29' W 090°43'3 5.1
2018-May-18 08:24N 29°26' W 090°43'2 5.1
2018-May-18 08:00N 29°24' W 090°44'5 0.1
2018-May-16 19:29N 29°29' W 090°43'3 5.4
2018-May-16 19:00N 29°32' W 090°42'2 4.7
2018-May-16 18:30N 29°34' W 090°43'2 3.3
2018-May-16 18:00N 29°36' W 090°43'2 3.1
2018-May-16 17:30N 29°36' W 090°41'3 5.4
2018-May-16 17:00N 29°35' W 090°38'2 4.7
2018-May-16 16:30N 29°35' W 090°36'3 5.4
2018-May-16 15:59N 29°34' W 090°33'39 2.1
2018-May-15 21:57N 29°54' W 089°55'  
Track history (hours):
 
Tides and Currents Weather Stations Pressure Air Temp Water Temp Dewpoint Dewpoint Depression Visibility Wind Speed Wind Dir Waves Ship Positions

Sea Cypress

Owner: Garber Brothers, Inc., Morgan City, LA. More information available from US FCC via Universal Licensing System and Coast Guard Vessel Documentation Center.

Last reported at 2018-May-19 13:08 UTC. Time now 2018-May-21 03:23 UTC.
Position N 29°34' W 090°32'.

Length 22 m; draft 3 m.

Type: Towing. MMSI: 367610590.

Date/timePositionNaut miles runAvg speedWind from/ knotsBaromVisibWave heightAir tempDewpointWater temp
2018-May-19 13:08N 29°34' W 090°32'1 6.0
2018-May-19 13:00N 29°34' W 090°32'3 6.4
2018-May-19 12:29N 29°35' W 090°36'3 5.3
2018-May-19 11:57N 29°36' W 090°39'1 1.5
2018-May-19 11:30N 29°36' W 090°40'0 0.0
2018-May-19 11:00N 29°36' W 090°40'0 0.0
2018-May-19 10:30N 29°36' W 090°40'0 0.0
2018-May-19 10:00N 29°36' W 090°40'0 0.0
2018-May-19 09:30N 29°36' W 090°40'0 0.0
2018-May-19 09:00N 29°36' W 090°40'0 0.0
2018-May-19 08:30N 29°36' W 090°40'0 0.0
2018-May-19 08:00N 29°36' W 090°40'0 0.0
2018-May-19 07:30N 29°36' W 090°40'0 0.0
2018-May-19 07:00N 29°36' W 090°40'0 0.0
2018-May-19 06:30N 29°36' W 090°40'0 0.0
2018-May-19 06:00N 29°36' W 090°40'0 0.0
2018-May-19 05:30N 29°36' W 090°40'0 0.0
2018-May-19 05:00N 29°36' W 090°40'0 0.0
2018-May-19 04:30N 29°36' W 090°40'0 0.0
2018-May-19 04:00N 29°36' W 090°40'0 0.0
2018-May-19 03:30N 29°36' W 090°40'0 0.0
2018-May-19 03:00N 29°36' W 090°40'0 0.0
2018-May-19 02:30N 29°36' W 090°40'0 0.0
2018-May-19 02:00N 29°36' W 090°40'1 2.5
2018-May-19 01:29N 29°35' W 090°38'3 6.6
2018-May-19 01:00N 29°34' W 090°35'24 3.1
2018-May-18 17:26N 29°43' W 090°10'23 4.6
2018-May-18 12:25N 29°34' W 090°34'2 5.4
2018-May-18 12:00N 29°35' W 090°36'3 5.7
2018-May-18 11:30N 29°36' W 090°39'2 4.9
2018-May-18 11:00N 29°37' W 090°42'2 4.5
2018-May-18 10:30N 29°35' W 090°43'1 2.3
2018-May-18 10:00N 29°34' W 090°43'2 3.7
2018-May-18 09:30N 29°32' W 090°42'3 5.1
2018-May-18 09:00N 29°29' W 090°43'3 5.1
2018-May-18 08:24N 29°26' W 090°43'2 5.1
2018-May-18 08:00N 29°24' W 090°44'5 0.1
2018-May-16 19:29N 29°29' W 090°43'3 5.4
2018-May-16 19:00N 29°32' W 090°42'2 4.7
2018-May-16 18:30N 29°34' W 090°43'2 3.3
2018-May-16 18:00N 29°36' W 090°43'2 3.1
2018-May-16 17:30N 29°36' W 090°41'3 5.4
2018-May-16 17:00N 29°35' W 090°38'2 4.7
2018-May-16 16:30N 29°35' W 090°36'3 5.4
2018-May-16 15:59N 29°34' W 090°33'39 2.1
2018-May-15 21:57N 29°54' W 089°55'  

Dump ship's entire track history